<?xml version="1.0" encoding="UTF-8" standalone="no" ?>
<gpx xmlns="http://www.topografix.com/GPX/1/1" xmlns:xsi="http://www.w3.org/2001/XMLSchema-instance" xsi:schemaLocation="http://www.topografix.com/GPX/1/1 http://www.topografix.com/GPX/1/1/gpx.xsd" version="1.1" creator="VisuGPX - https://www.visugpx.com">
  <metadata>
    <name>Rando douce \&quot;sur les trace de Baligou\&quot;</name>
    <desc><![CDATA[Départ camping sauvage de Bourron, vers la mare aux Fées, Tour du rocher Boulin et retour]]></desc>
  </metadata>
  <trk>
    <name><![CDATA[23 avr. 2015 09:22:00]]></name>
    <cmt><![CDATA[23 avr. 2015 09:22:00]]></cmt>
    <trkseg>
      <trkpt lat="48.35455" lon="2.71694">
        <ele>90</ele>
        <time>2015-04-23T07:22:00Z</time>
      </trkpt>
      <trkpt lat="48.35454" lon="2.71683">
        <ele>89</ele>
        <time>2015-04-23T07:22:08Z</time>
      </trkpt>
      <trkpt lat="48.35452" lon="2.71677">
        <ele>89</ele>
        <time>2015-04-23T07:22:12Z</time>
      </trkpt>
      <trkpt lat="48.3545" lon="2.71655">
        <ele>90</ele>
        <time>2015-04-23T07:22:29Z</time>
      </trkpt>
      <trkpt lat="48.35448" lon="2.71647">
        <ele>90</ele>
        <time>2015-04-23T07:22:34Z</time>
      </trkpt>
      <trkpt lat="48.35443" lon="2.71625">
        <ele>91</ele>
        <time>2015-04-23T07:22:48Z</time>
      </trkpt>
      <trkpt lat="48.35437" lon="2.71612">
        <ele>91</ele>
        <time>2015-04-23T07:22:57Z</time>
      </trkpt>
      <trkpt lat="48.35435" lon="2.71605">
        <ele>91</ele>
        <time>2015-04-23T07:23:03Z</time>
      </trkpt>
      <trkpt lat="48.35424" lon="2.7158">
        <ele>92</ele>
        <time>2015-04-23T07:23:21Z</time>
      </trkpt>
      <trkpt lat="48.35413" lon="2.71527">
        <ele>96</ele>
        <time>2015-04-23T07:23:54Z</time>
      </trkpt>
      <trkpt lat="48.35404" lon="2.71499">
        <ele>100</ele>
        <time>2015-04-23T07:24:13Z</time>
      </trkpt>
      <trkpt lat="48.35408" lon="2.71495">
        <ele>101</ele>
        <time>2015-04-23T07:24:17Z</time>
      </trkpt>
      <trkpt lat="48.35418" lon="2.71494">
        <ele>101</ele>
        <time>2015-04-23T07:24:25Z</time>
      </trkpt>
      <trkpt lat="48.35447" lon="2.71486">
        <ele>102</ele>
        <time>2015-04-23T07:25:05Z</time>
      </trkpt>
      <trkpt lat="48.35472" lon="2.71469">
        <ele>105</ele>
        <time>2015-04-23T07:25:43Z</time>
      </trkpt>
      <trkpt lat="48.35483" lon="2.71474">
        <ele>105</ele>
        <time>2015-04-23T07:26:02Z</time>
      </trkpt>
      <trkpt lat="48.35489" lon="2.71485">
        <ele>107</ele>
        <time>2015-04-23T07:26:14Z</time>
      </trkpt>
      <trkpt lat="48.35498" lon="2.71483">
        <ele>108</ele>
        <time>2015-04-23T07:26:28Z</time>
      </trkpt>
      <trkpt lat="48.35508" lon="2.71484">
        <ele>108</ele>
        <time>2015-04-23T07:26:37Z</time>
      </trkpt>
      <trkpt lat="48.35526" lon="2.71476">
        <ele>110</ele>
        <time>2015-04-23T07:27:00Z</time>
      </trkpt>
      <trkpt lat="48.35532" lon="2.71465">
        <ele>110</ele>
        <time>2015-04-23T07:27:10Z</time>
      </trkpt>
      <trkpt lat="48.35547" lon="2.71446">
        <ele>109</ele>
        <time>2015-04-23T07:27:29Z</time>
      </trkpt>
      <trkpt lat="48.35567" lon="2.71434">
        <ele>104</ele>
        <time>2015-04-23T07:27:53Z</time>
      </trkpt>
      <trkpt lat="48.35575" lon="2.71426">
        <ele>104</ele>
        <time>2015-04-23T07:28:10Z</time>
      </trkpt>
      <trkpt lat="48.35578" lon="2.71421">
        <ele>104</ele>
        <time>2015-04-23T07:28:18Z</time>
      </trkpt>
      <trkpt lat="48.35583" lon="2.71419">
        <ele>104</ele>
        <time>2015-04-23T07:28:26Z</time>
      </trkpt>
      <trkpt lat="48.35586" lon="2.71415">
        <ele>104</ele>
        <time>2015-04-23T07:28:35Z</time>
      </trkpt>
      <trkpt lat="48.35587" lon="2.71408">
        <ele>105</ele>
        <time>2015-04-23T07:28:46Z</time>
      </trkpt>
      <trkpt lat="48.3559" lon="2.71394">
        <ele>105</ele>
        <time>2015-04-23T07:29:00Z</time>
      </trkpt>
      <trkpt lat="48.35591" lon="2.71379">
        <ele>106</ele>
        <time>2015-04-23T07:29:12Z</time>
      </trkpt>
      <trkpt lat="48.35592" lon="2.71374">
        <ele>108</ele>
        <time>2015-04-23T07:29:22Z</time>
      </trkpt>
      <trkpt lat="48.35594" lon="2.71366">
        <ele>108</ele>
        <time>2015-04-23T07:29:28Z</time>
      </trkpt>
      <trkpt lat="48.35595" lon="2.71358">
        <ele>109</ele>
        <time>2015-04-23T07:29:34Z</time>
      </trkpt>
      <trkpt lat="48.35593" lon="2.71352">
        <ele>109</ele>
        <time>2015-04-23T07:29:39Z</time>
      </trkpt>
      <trkpt lat="48.35592" lon="2.71344">
        <ele>109</ele>
        <time>2015-04-23T07:29:46Z</time>
      </trkpt>
      <trkpt lat="48.35594" lon="2.71337">
        <ele>110</ele>
        <time>2015-04-23T07:29:52Z</time>
      </trkpt>
      <trkpt lat="48.35599" lon="2.71334">
        <ele>110</ele>
        <time>2015-04-23T07:29:58Z</time>
      </trkpt>
      <trkpt lat="48.35604" lon="2.71335">
        <ele>110</ele>
        <time>2015-04-23T07:30:03Z</time>
      </trkpt>
      <trkpt lat="48.35614" lon="2.71334">
        <ele>110</ele>
        <time>2015-04-23T07:30:17Z</time>
      </trkpt>
      <trkpt lat="48.35618" lon="2.71337">
        <ele>110</ele>
        <time>2015-04-23T07:30:24Z</time>
      </trkpt>
      <trkpt lat="48.35624" lon="2.71334">
        <ele>109</ele>
        <time>2015-04-23T07:30:38Z</time>
      </trkpt>
      <trkpt lat="48.35633" lon="2.71335">
        <ele>108</ele>
        <time>2015-04-23T07:30:52Z</time>
      </trkpt>
      <trkpt lat="48.35636" lon="2.71328">
        <ele>108</ele>
        <time>2015-04-23T07:31:00Z</time>
      </trkpt>
      <trkpt lat="48.3564" lon="2.71326">
        <ele>109</ele>
        <time>2015-04-23T07:31:07Z</time>
      </trkpt>
      <trkpt lat="48.35646" lon="2.71312">
        <ele>111</ele>
        <time>2015-04-23T07:31:20Z</time>
      </trkpt>
      <trkpt lat="48.35646" lon="2.71304">
        <ele>112</ele>
        <time>2015-04-23T07:31:26Z</time>
      </trkpt>
      <trkpt lat="48.35651" lon="2.713">
        <ele>112</ele>
        <time>2015-04-23T07:31:33Z</time>
      </trkpt>
      <trkpt lat="48.35654" lon="2.71301">
        <ele>112</ele>
        <time>2015-04-23T07:31:41Z</time>
      </trkpt>
      <trkpt lat="48.35659" lon="2.71299">
        <ele>112</ele>
        <time>2015-04-23T07:31:50Z</time>
      </trkpt>
      <trkpt lat="48.35669" lon="2.71298">
        <ele>112</ele>
        <time>2015-04-23T07:32:07Z</time>
      </trkpt>
      <trkpt lat="48.35668" lon="2.7129">
        <ele>113</ele>
        <time>2015-04-23T07:32:14Z</time>
      </trkpt>
      <trkpt lat="48.3567" lon="2.71275">
        <ele>115</ele>
        <time>2015-04-23T07:32:27Z</time>
      </trkpt>
      <trkpt lat="48.35678" lon="2.71257">
        <ele>118</ele>
        <time>2015-04-23T07:32:46Z</time>
      </trkpt>
      <trkpt lat="48.35682" lon="2.71256">
        <ele>118</ele>
        <time>2015-04-23T07:32:52Z</time>
      </trkpt>
      <trkpt lat="48.35687" lon="2.71253">
        <ele>119</ele>
        <time>2015-04-23T07:33:00Z</time>
      </trkpt>
      <trkpt lat="48.35691" lon="2.7125">
        <ele>119</ele>
        <time>2015-04-23T07:33:06Z</time>
      </trkpt>
      <trkpt lat="48.35707" lon="2.71217">
        <ele>117</ele>
        <time>2015-04-23T07:33:37Z</time>
      </trkpt>
      <trkpt lat="48.35707" lon="2.7121">
        <ele>117</ele>
        <time>2015-04-23T07:33:45Z</time>
      </trkpt>
      <trkpt lat="48.35711" lon="2.71189">
        <ele>118</ele>
        <time>2015-04-23T07:34:03Z</time>
      </trkpt>
      <trkpt lat="48.35711" lon="2.71182">
        <ele>118</ele>
        <time>2015-04-23T07:34:08Z</time>
      </trkpt>
      <trkpt lat="48.35713" lon="2.7116">
        <ele>120</ele>
        <time>2015-04-23T07:34:22Z</time>
      </trkpt>
      <trkpt lat="48.35711" lon="2.71154">
        <ele>120</ele>
        <time>2015-04-23T07:34:28Z</time>
      </trkpt>
      <trkpt lat="48.3571" lon="2.71147">
        <ele>120</ele>
        <time>2015-04-23T07:34:35Z</time>
      </trkpt>
      <trkpt lat="48.35709" lon="2.71134">
        <ele>120</ele>
        <time>2015-04-23T07:34:42Z</time>
      </trkpt>
      <trkpt lat="48.35713" lon="2.71131">
        <ele>119</ele>
        <time>2015-04-23T07:34:47Z</time>
      </trkpt>
      <trkpt lat="48.35718" lon="2.71128">
        <ele>118</ele>
        <time>2015-04-23T07:34:53Z</time>
      </trkpt>
      <trkpt lat="48.35732" lon="2.71129">
        <ele>116</ele>
        <time>2015-04-23T07:35:06Z</time>
      </trkpt>
      <trkpt lat="48.35737" lon="2.71129">
        <ele>116</ele>
        <time>2015-04-23T07:35:10Z</time>
      </trkpt>
      <trkpt lat="48.35741" lon="2.71125">
        <ele>116</ele>
        <time>2015-04-23T07:35:14Z</time>
      </trkpt>
      <trkpt lat="48.35745" lon="2.71121">
        <ele>117</ele>
        <time>2015-04-23T07:35:18Z</time>
      </trkpt>
      <trkpt lat="48.35763" lon="2.71095">
        <ele>119</ele>
        <time>2015-04-23T07:35:42Z</time>
      </trkpt>
      <trkpt lat="48.35767" lon="2.71092">
        <ele>119</ele>
        <time>2015-04-23T07:35:46Z</time>
      </trkpt>
      <trkpt lat="48.35767" lon="2.71086">
        <ele>119</ele>
        <time>2015-04-23T07:35:48Z</time>
      </trkpt>
      <trkpt lat="48.3577" lon="2.7108">
        <ele>120</ele>
        <time>2015-04-23T07:35:52Z</time>
      </trkpt>
      <trkpt lat="48.35775" lon="2.7108">
        <ele>120</ele>
        <time>2015-04-23T07:35:58Z</time>
      </trkpt>
      <trkpt lat="48.3578" lon="2.71081">
        <ele>120</ele>
        <time>2015-04-23T07:36:02Z</time>
      </trkpt>
      <trkpt lat="48.35785" lon="2.71082">
        <ele>120</ele>
        <time>2015-04-23T07:36:05Z</time>
      </trkpt>
      <trkpt lat="48.35793" lon="2.71092">
        <ele>121</ele>
        <time>2015-04-23T07:36:17Z</time>
      </trkpt>
      <trkpt lat="48.35798" lon="2.71092">
        <ele>122</ele>
        <time>2015-04-23T07:36:22Z</time>
      </trkpt>
      <trkpt lat="48.35808" lon="2.71083">
        <ele>124</ele>
        <time>2015-04-23T07:36:30Z</time>
      </trkpt>
      <trkpt lat="48.35817" lon="2.7109">
        <ele>124</ele>
        <time>2015-04-23T07:36:47Z</time>
      </trkpt>
      <trkpt lat="48.35825" lon="2.71096">
        <ele>125</ele>
        <time>2015-04-23T07:36:57Z</time>
      </trkpt>
      <trkpt lat="48.35835" lon="2.71093">
        <ele>125</ele>
        <time>2015-04-23T07:37:06Z</time>
      </trkpt>
      <trkpt lat="48.35838" lon="2.71089">
        <ele>125</ele>
        <time>2015-04-23T07:37:12Z</time>
      </trkpt>
      <trkpt lat="48.35843" lon="2.71087">
        <ele>125</ele>
        <time>2015-04-23T07:37:18Z</time>
      </trkpt>
      <trkpt lat="48.35848" lon="2.71084">
        <ele>124</ele>
        <time>2015-04-23T07:37:25Z</time>
      </trkpt>
      <trkpt lat="48.35852" lon="2.71084">
        <ele>124</ele>
        <time>2015-04-23T07:37:30Z</time>
      </trkpt>
      <trkpt lat="48.35857" lon="2.71088">
        <ele>123</ele>
        <time>2015-04-23T07:37:34Z</time>
      </trkpt>
      <trkpt lat="48.35859" lon="2.71081">
        <ele>123</ele>
        <time>2015-04-23T07:37:40Z</time>
      </trkpt>
      <trkpt lat="48.35854" lon="2.71077">
        <ele>122</ele>
        <time>2015-04-23T07:37:44Z</time>
      </trkpt>
      <trkpt lat="48.35851" lon="2.7107">
        <ele>121</ele>
        <time>2015-04-23T07:37:50Z</time>
      </trkpt>
      <trkpt lat="48.35846" lon="2.71069">
        <ele>120</ele>
        <time>2015-04-23T07:37:57Z</time>
      </trkpt>
      <trkpt lat="48.35845" lon="2.71061">
        <ele>119</ele>
        <time>2015-04-23T07:38:02Z</time>
      </trkpt>
      <trkpt lat="48.35845" lon="2.71054">
        <ele>118</ele>
        <time>2015-04-23T07:38:06Z</time>
      </trkpt>
      <trkpt lat="48.35845" lon="2.71046">
        <ele>118</ele>
        <time>2015-04-23T07:38:11Z</time>
      </trkpt>
      <trkpt lat="48.35847" lon="2.7103">
        <ele>119</ele>
        <time>2015-04-23T07:38:20Z</time>
      </trkpt>
      <trkpt lat="48.35844" lon="2.71023">
        <ele>119</ele>
        <time>2015-04-23T07:38:25Z</time>
      </trkpt>
      <trkpt lat="48.35844" lon="2.71018">
        <ele>119</ele>
        <time>2015-04-23T07:38:33Z</time>
      </trkpt>
      <trkpt lat="48.35841" lon="2.71002">
        <ele>119</ele>
        <time>2015-04-23T07:38:45Z</time>
      </trkpt>
      <trkpt lat="48.35841" lon="2.70998">
        <ele>120</ele>
        <time>2015-04-23T07:38:51Z</time>
      </trkpt>
      <trkpt lat="48.35839" lon="2.70991">
        <ele>120</ele>
        <time>2015-04-23T07:38:57Z</time>
      </trkpt>
      <trkpt lat="48.35835" lon="2.70977">
        <ele>120</ele>
        <time>2015-04-23T07:39:06Z</time>
      </trkpt>
      <trkpt lat="48.35836" lon="2.70969">
        <ele>120</ele>
        <time>2015-04-23T07:39:12Z</time>
      </trkpt>
      <trkpt lat="48.35838" lon="2.70962">
        <ele>119</ele>
        <time>2015-04-23T07:39:17Z</time>
      </trkpt>
      <trkpt lat="48.35837" lon="2.70955">
        <ele>119</ele>
        <time>2015-04-23T07:39:21Z</time>
      </trkpt>
      <trkpt lat="48.35837" lon="2.70948">
        <ele>119</ele>
        <time>2015-04-23T07:39:26Z</time>
      </trkpt>
      <trkpt lat="48.3584" lon="2.70943">
        <ele>119</ele>
        <time>2015-04-23T07:39:31Z</time>
      </trkpt>
      <trkpt lat="48.35845" lon="2.70944">
        <ele>119</ele>
        <time>2015-04-23T07:39:37Z</time>
      </trkpt>
      <trkpt lat="48.35853" lon="2.70944">
        <ele>119</ele>
        <time>2015-04-23T07:39:49Z</time>
      </trkpt>
      <trkpt lat="48.35863" lon="2.70943">
        <ele>121</ele>
        <time>2015-04-23T07:40:00Z</time>
      </trkpt>
      <trkpt lat="48.35867" lon="2.7094">
        <ele>123</ele>
        <time>2015-04-23T07:40:05Z</time>
      </trkpt>
      <trkpt lat="48.35871" lon="2.70936">
        <ele>123</ele>
        <time>2015-04-23T07:40:11Z</time>
      </trkpt>
      <trkpt lat="48.35878" lon="2.70918">
        <ele>120</ele>
        <time>2015-04-23T07:40:27Z</time>
      </trkpt>
      <trkpt lat="48.3588" lon="2.70912">
        <ele>120</ele>
        <time>2015-04-23T07:40:32Z</time>
      </trkpt>
      <trkpt lat="48.35883" lon="2.70905">
        <ele>119</ele>
        <time>2015-04-23T07:40:39Z</time>
      </trkpt>
      <trkpt lat="48.35892" lon="2.70899">
        <ele>117</ele>
        <time>2015-04-23T07:40:53Z</time>
      </trkpt>
      <trkpt lat="48.35895" lon="2.70894">
        <ele>117</ele>
        <time>2015-04-23T07:40:58Z</time>
      </trkpt>
      <trkpt lat="48.35898" lon="2.70872">
        <ele>115</ele>
        <time>2015-04-23T07:41:09Z</time>
      </trkpt>
      <trkpt lat="48.359" lon="2.70866">
        <ele>115</ele>
        <time>2015-04-23T07:41:13Z</time>
      </trkpt>
      <trkpt lat="48.35901" lon="2.70858">
        <ele>114</ele>
        <time>2015-04-23T07:41:17Z</time>
      </trkpt>
      <trkpt lat="48.35905" lon="2.70843">
        <ele>114</ele>
        <time>2015-04-23T07:41:25Z</time>
      </trkpt>
      <trkpt lat="48.35906" lon="2.70836">
        <ele>114</ele>
        <time>2015-04-23T07:41:29Z</time>
      </trkpt>
      <trkpt lat="48.35909" lon="2.70828">
        <ele>114</ele>
        <time>2015-04-23T07:41:34Z</time>
      </trkpt>
      <trkpt lat="48.3591" lon="2.70822">
        <ele>115</ele>
        <time>2015-04-23T07:41:38Z</time>
      </trkpt>
      <trkpt lat="48.35915" lon="2.70819">
        <ele>116</ele>
        <time>2015-04-23T07:41:44Z</time>
      </trkpt>
      <trkpt lat="48.35917" lon="2.70811">
        <ele>116</ele>
        <time>2015-04-23T07:41:48Z</time>
      </trkpt>
      <trkpt lat="48.35921" lon="2.70807">
        <ele>116</ele>
        <time>2015-04-23T07:41:51Z</time>
      </trkpt>
      <trkpt lat="48.35926" lon="2.70804">
        <ele>116</ele>
        <time>2015-04-23T07:41:56Z</time>
      </trkpt>
      <trkpt lat="48.35931" lon="2.708">
        <ele>116</ele>
        <time>2015-04-23T07:42:00Z</time>
      </trkpt>
      <trkpt lat="48.35932" lon="2.70796">
        <ele>116</ele>
        <time>2015-04-23T07:42:02Z</time>
      </trkpt>
      <trkpt lat="48.35938" lon="2.7079">
        <ele>118</ele>
        <time>2015-04-23T07:42:08Z</time>
      </trkpt>
      <trkpt lat="48.35942" lon="2.70794">
        <ele>118</ele>
        <time>2015-04-23T07:42:16Z</time>
      </trkpt>
      <trkpt lat="48.35946" lon="2.70787">
        <ele>117</ele>
        <time>2015-04-23T07:42:20Z</time>
      </trkpt>
      <trkpt lat="48.35958" lon="2.70774">
        <ele>118</ele>
        <time>2015-04-23T07:42:33Z</time>
      </trkpt>
      <trkpt lat="48.35962" lon="2.70771">
        <ele>119</ele>
        <time>2015-04-23T07:42:37Z</time>
      </trkpt>
      <trkpt lat="48.3597" lon="2.70762">
        <ele>120</ele>
        <time>2015-04-23T07:42:44Z</time>
      </trkpt>
      <trkpt lat="48.35975" lon="2.70759">
        <ele>120</ele>
        <time>2015-04-23T07:42:48Z</time>
      </trkpt>
      <trkpt lat="48.3598" lon="2.70758">
        <ele>119</ele>
        <time>2015-04-23T07:42:52Z</time>
      </trkpt>
      <trkpt lat="48.35987" lon="2.7075">
        <ele>119</ele>
        <time>2015-04-23T07:43:03Z</time>
      </trkpt>
      <trkpt lat="48.36" lon="2.70712">
        <ele>118</ele>
        <time>2015-04-23T07:43:24Z</time>
      </trkpt>
      <trkpt lat="48.36001" lon="2.70698">
        <ele>118</ele>
        <time>2015-04-23T07:43:32Z</time>
      </trkpt>
      <trkpt lat="48.36" lon="2.7069">
        <ele>118</ele>
        <time>2015-04-23T07:43:36Z</time>
      </trkpt>
      <trkpt lat="48.35988" lon="2.70651">
        <ele>122</ele>
        <time>2015-04-23T07:44:00Z</time>
      </trkpt>
      <trkpt lat="48.35985" lon="2.70629">
        <ele>122</ele>
        <time>2015-04-23T07:44:17Z</time>
      </trkpt>
      <trkpt lat="48.35975" lon="2.70603">
        <ele>121</ele>
        <time>2015-04-23T07:44:33Z</time>
      </trkpt>
      <trkpt lat="48.35972" lon="2.70574">
        <ele>124</ele>
        <time>2015-04-23T07:44:53Z</time>
      </trkpt>
      <trkpt lat="48.35972" lon="2.70567">
        <ele>124</ele>
        <time>2015-04-23T07:44:57Z</time>
      </trkpt>
      <trkpt lat="48.35973" lon="2.70559">
        <ele>124</ele>
        <time>2015-04-23T07:45:01Z</time>
      </trkpt>
      <trkpt lat="48.35972" lon="2.70552">
        <ele>124</ele>
        <time>2015-04-23T07:45:08Z</time>
      </trkpt>
      <trkpt lat="48.35971" lon="2.70544">
        <ele>123</ele>
        <time>2015-04-23T07:45:13Z</time>
      </trkpt>
      <trkpt lat="48.35972" lon="2.70537">
        <ele>122</ele>
        <time>2015-04-23T07:45:18Z</time>
      </trkpt>
      <trkpt lat="48.35973" lon="2.7053">
        <ele>123</ele>
        <time>2015-04-23T07:45:52Z</time>
      </trkpt>
      <trkpt lat="48.35974" lon="2.70523">
        <ele>123</ele>
        <time>2015-04-23T07:45:58Z</time>
      </trkpt>
      <trkpt lat="48.35975" lon="2.70516">
        <ele>123</ele>
        <time>2015-04-23T07:46:02Z</time>
      </trkpt>
      <trkpt lat="48.35978" lon="2.7051">
        <ele>124</ele>
        <time>2015-04-23T07:46:07Z</time>
      </trkpt>
      <trkpt lat="48.35979" lon="2.70502">
        <ele>123</ele>
        <time>2015-04-23T07:46:13Z</time>
      </trkpt>
      <trkpt lat="48.3598" lon="2.70498">
        <ele>123</ele>
        <time>2015-04-23T07:46:19Z</time>
      </trkpt>
      <trkpt lat="48.35982" lon="2.70492">
        <ele>122</ele>
        <time>2015-04-23T07:46:25Z</time>
      </trkpt>
      <trkpt lat="48.35976" lon="2.7048">
        <ele>122</ele>
        <time>2015-04-23T07:46:31Z</time>
      </trkpt>
      <trkpt lat="48.35978" lon="2.70474">
        <ele>122</ele>
        <time>2015-04-23T07:46:34Z</time>
      </trkpt>
      <trkpt lat="48.35982" lon="2.7046">
        <ele>121</ele>
        <time>2015-04-23T07:46:40Z</time>
      </trkpt>
      <trkpt lat="48.35991" lon="2.70439">
        <ele>121</ele>
        <time>2015-04-23T07:46:54Z</time>
      </trkpt>
      <trkpt lat="48.35997" lon="2.70425">
        <ele>121</ele>
        <time>2015-04-23T07:47:02Z</time>
      </trkpt>
      <trkpt lat="48.36001" lon="2.70419">
        <ele>121</ele>
        <time>2015-04-23T07:47:07Z</time>
      </trkpt>
      <trkpt lat="48.36005" lon="2.70415">
        <ele>122</ele>
        <time>2015-04-23T07:47:11Z</time>
      </trkpt>
      <trkpt lat="48.36012" lon="2.70402">
        <ele>121</ele>
        <time>2015-04-23T07:47:20Z</time>
      </trkpt>
      <trkpt lat="48.36015" lon="2.70396">
        <ele>121</ele>
        <time>2015-04-23T07:47:24Z</time>
      </trkpt>
      <trkpt lat="48.36018" lon="2.70383">
        <ele>120</ele>
        <time>2015-04-23T07:47:32Z</time>
      </trkpt>
      <trkpt lat="48.36033" lon="2.7033">
        <ele>123</ele>
        <time>2015-04-23T07:48:04Z</time>
      </trkpt>
      <trkpt lat="48.36048" lon="2.70297">
        <ele>125</ele>
        <time>2015-04-23T07:48:30Z</time>
      </trkpt>
      <trkpt lat="48.3605" lon="2.70291">
        <ele>124</ele>
        <time>2015-04-23T07:49:00Z</time>
      </trkpt>
      <trkpt lat="48.36055" lon="2.70277">
        <ele>124</ele>
        <time>2015-04-23T07:49:09Z</time>
      </trkpt>
      <trkpt lat="48.36058" lon="2.70272">
        <ele>124</ele>
        <time>2015-04-23T07:49:14Z</time>
      </trkpt>
      <trkpt lat="48.36061" lon="2.70266">
        <ele>124</ele>
        <time>2015-04-23T07:49:18Z</time>
      </trkpt>
      <trkpt lat="48.36064" lon="2.70261">
        <ele>124</ele>
        <time>2015-04-23T07:49:23Z</time>
      </trkpt>
      <trkpt lat="48.36068" lon="2.70257">
        <ele>124</ele>
        <time>2015-04-23T07:49:31Z</time>
      </trkpt>
      <trkpt lat="48.3607" lon="2.7025">
        <ele>124</ele>
        <time>2015-04-23T07:49:36Z</time>
      </trkpt>
      <trkpt lat="48.36073" lon="2.70245">
        <ele>124</ele>
        <time>2015-04-23T07:49:39Z</time>
      </trkpt>
      <trkpt lat="48.36081" lon="2.70235">
        <ele>124</ele>
        <time>2015-04-23T07:49:46Z</time>
      </trkpt>
      <trkpt lat="48.36084" lon="2.70231">
        <ele>123</ele>
        <time>2015-04-23T07:49:50Z</time>
      </trkpt>
      <trkpt lat="48.36094" lon="2.70228">
        <ele>122</ele>
        <time>2015-04-23T07:49:58Z</time>
      </trkpt>
      <trkpt lat="48.36099" lon="2.70213">
        <ele>122</ele>
        <time>2015-04-23T07:50:07Z</time>
      </trkpt>
      <trkpt lat="48.36103" lon="2.70209">
        <ele>122</ele>
        <time>2015-04-23T07:50:11Z</time>
      </trkpt>
      <trkpt lat="48.3611" lon="2.70201">
        <ele>122</ele>
        <time>2015-04-23T07:50:18Z</time>
      </trkpt>
      <trkpt lat="48.36126" lon="2.70195">
        <ele>124</ele>
        <time>2015-04-23T07:50:36Z</time>
      </trkpt>
      <trkpt lat="48.36131" lon="2.70195">
        <ele>124</ele>
        <time>2015-04-23T07:50:41Z</time>
      </trkpt>
      <trkpt lat="48.36136" lon="2.70197">
        <ele>123</ele>
        <time>2015-04-23T07:50:46Z</time>
      </trkpt>
      <trkpt lat="48.36139" lon="2.70205">
        <ele>123</ele>
        <time>2015-04-23T07:50:54Z</time>
      </trkpt>
      <trkpt lat="48.36137" lon="2.7022">
        <ele>124</ele>
        <time>2015-04-23T07:51:05Z</time>
      </trkpt>
      <trkpt lat="48.36141" lon="2.70232">
        <ele>126</ele>
        <time>2015-04-23T07:51:16Z</time>
      </trkpt>
      <trkpt lat="48.36138" lon="2.70238">
        <ele>126</ele>
        <time>2015-04-23T07:51:25Z</time>
      </trkpt>
      <trkpt lat="48.36139" lon="2.70245">
        <ele>126</ele>
        <time>2015-04-23T07:51:36Z</time>
      </trkpt>
      <trkpt lat="48.36143" lon="2.7025">
        <ele>127</ele>
        <time>2015-04-23T07:51:40Z</time>
      </trkpt>
      <trkpt lat="48.36147" lon="2.70275">
        <ele>130</ele>
        <time>2015-04-23T07:52:14Z</time>
      </trkpt>
      <trkpt lat="48.36153" lon="2.70293">
        <ele>131</ele>
        <time>2015-04-23T07:52:32Z</time>
      </trkpt>
      <trkpt lat="48.36153" lon="2.70297">
        <ele>133</ele>
        <time>2015-04-23T07:52:43Z</time>
      </trkpt>
      <trkpt lat="48.36153" lon="2.70304">
        <ele>133</ele>
        <time>2015-04-23T07:52:48Z</time>
      </trkpt>
      <trkpt lat="48.36153" lon="2.70312">
        <ele>133</ele>
        <time>2015-04-23T07:52:54Z</time>
      </trkpt>
      <trkpt lat="48.36154" lon="2.70319">
        <ele>133</ele>
        <time>2015-04-23T07:52:59Z</time>
      </trkpt>
      <trkpt lat="48.36153" lon="2.70334">
        <ele>132</ele>
        <time>2015-04-23T07:53:09Z</time>
      </trkpt>
      <trkpt lat="48.36159" lon="2.70368">
        <ele>128</ele>
        <time>2015-04-23T07:53:32Z</time>
      </trkpt>
      <trkpt lat="48.36162" lon="2.70374">
        <ele>127</ele>
        <time>2015-04-23T07:53:36Z</time>
      </trkpt>
      <trkpt lat="48.36162" lon="2.70388">
        <ele>126</ele>
        <time>2015-04-23T07:53:46Z</time>
      </trkpt>
      <trkpt lat="48.36159" lon="2.70402">
        <ele>124</ele>
        <time>2015-04-23T07:54:00Z</time>
      </trkpt>
      <trkpt lat="48.36156" lon="2.70416">
        <ele>123</ele>
        <time>2015-04-23T07:54:10Z</time>
      </trkpt>
      <trkpt lat="48.3616" lon="2.70429">
        <ele>121</ele>
        <time>2015-04-23T07:54:19Z</time>
      </trkpt>
      <trkpt lat="48.36164" lon="2.70441">
        <ele>121</ele>
        <time>2015-04-23T07:54:29Z</time>
      </trkpt>
      <trkpt lat="48.36159" lon="2.70451">
        <ele>119</ele>
        <time>2015-04-23T07:54:48Z</time>
      </trkpt>
      <trkpt lat="48.3616" lon="2.70465">
        <ele>119</ele>
        <time>2015-04-23T07:54:59Z</time>
      </trkpt>
      <trkpt lat="48.36153" lon="2.7049">
        <ele>116</ele>
        <time>2015-04-23T07:55:20Z</time>
      </trkpt>
      <trkpt lat="48.36156" lon="2.70503">
        <ele>114</ele>
        <time>2015-04-23T07:55:31Z</time>
      </trkpt>
      <trkpt lat="48.36165" lon="2.70508">
        <ele>113</ele>
        <time>2015-04-23T07:55:41Z</time>
      </trkpt>
      <trkpt lat="48.36166" lon="2.70518">
        <ele>113</ele>
        <time>2015-04-23T07:56:31Z</time>
      </trkpt>
      <trkpt lat="48.36164" lon="2.70525">
        <ele>112</ele>
        <time>2015-04-23T07:56:36Z</time>
      </trkpt>
      <trkpt lat="48.36161" lon="2.70527">
        <ele>110</ele>
        <time>2015-04-23T07:56:58Z</time>
      </trkpt>
      <trkpt lat="48.36159" lon="2.70535">
        <ele>109</ele>
        <time>2015-04-23T07:57:13Z</time>
      </trkpt>
      <trkpt lat="48.36155" lon="2.70548">
        <ele>108</ele>
        <time>2015-04-23T07:57:24Z</time>
      </trkpt>
      <trkpt lat="48.3616" lon="2.7059">
        <ele>106</ele>
        <time>2015-04-23T07:57:57Z</time>
      </trkpt>
      <trkpt lat="48.36174" lon="2.70608">
        <ele>102</ele>
        <time>2015-04-23T07:58:20Z</time>
      </trkpt>
      <trkpt lat="48.36174" lon="2.70623">
        <ele>100</ele>
        <time>2015-04-23T07:58:30Z</time>
      </trkpt>
      <trkpt lat="48.36178" lon="2.70633">
        <ele>99</ele>
        <time>2015-04-23T07:58:48Z</time>
      </trkpt>
      <trkpt lat="48.36183" lon="2.70637">
        <ele>98</ele>
        <time>2015-04-23T07:59:13Z</time>
      </trkpt>
      <trkpt lat="48.36192" lon="2.70625">
        <ele>98</ele>
        <time>2015-04-23T07:59:38Z</time>
      </trkpt>
      <trkpt lat="48.36201" lon="2.70617">
        <ele>99</ele>
        <time>2015-04-23T07:59:46Z</time>
      </trkpt>
      <trkpt lat="48.36212" lon="2.70623">
        <ele>100</ele>
        <time>2015-04-23T08:00:06Z</time>
      </trkpt>
      <trkpt lat="48.36219" lon="2.70634">
        <ele>100</ele>
        <time>2015-04-23T08:00:16Z</time>
      </trkpt>
      <trkpt lat="48.36228" lon="2.70637">
        <ele>101</ele>
        <time>2015-04-23T08:00:27Z</time>
      </trkpt>
      <trkpt lat="48.36236" lon="2.70649">
        <ele>103</ele>
        <time>2015-04-23T08:00:58Z</time>
      </trkpt>
      <trkpt lat="48.36238" lon="2.70655">
        <ele>104</ele>
        <time>2015-04-23T08:01:06Z</time>
      </trkpt>
      <trkpt lat="48.36239" lon="2.7066">
        <ele>104</ele>
        <time>2015-04-23T08:01:17Z</time>
      </trkpt>
      <trkpt lat="48.36239" lon="2.70667">
        <ele>104</ele>
        <time>2015-04-23T08:01:29Z</time>
      </trkpt>
      <trkpt lat="48.36238" lon="2.70661">
        <ele>105</ele>
        <time>2015-04-23T08:01:58Z</time>
      </trkpt>
      <trkpt lat="48.36234" lon="2.70655">
        <ele>104</ele>
        <time>2015-04-23T08:02:04Z</time>
      </trkpt>
      <trkpt lat="48.36229" lon="2.70627">
        <ele>104</ele>
        <time>2015-04-23T08:02:29Z</time>
      </trkpt>
      <trkpt lat="48.36225" lon="2.70628">
        <ele>105</ele>
        <time>2015-04-23T08:02:38Z</time>
      </trkpt>
      <trkpt lat="48.3622" lon="2.70631">
        <ele>105</ele>
        <time>2015-04-23T08:02:43Z</time>
      </trkpt>
      <trkpt lat="48.36217" lon="2.70625">
        <ele>105</ele>
        <time>2015-04-23T08:02:48Z</time>
      </trkpt>
      <trkpt lat="48.3621" lon="2.70616">
        <ele>105</ele>
        <time>2015-04-23T08:02:59Z</time>
      </trkpt>
      <trkpt lat="48.36192" lon="2.70601">
        <ele>105</ele>
        <time>2015-04-23T08:03:24Z</time>
      </trkpt>
      <trkpt lat="48.36183" lon="2.70602">
        <ele>105</ele>
        <time>2015-04-23T08:03:38Z</time>
      </trkpt>
      <trkpt lat="48.36173" lon="2.70609">
        <ele>105</ele>
        <time>2015-04-23T08:03:54Z</time>
      </trkpt>
      <trkpt lat="48.36169" lon="2.70621">
        <ele>105</ele>
        <time>2015-04-23T08:04:03Z</time>
      </trkpt>
      <trkpt lat="48.36172" lon="2.70635">
        <ele>105</ele>
        <time>2015-04-23T08:04:15Z</time>
      </trkpt>
      <trkpt lat="48.36165" lon="2.70644">
        <ele>104</ele>
        <time>2015-04-23T08:04:32Z</time>
      </trkpt>
      <trkpt lat="48.36156" lon="2.70669">
        <ele>104</ele>
        <time>2015-04-23T08:04:51Z</time>
      </trkpt>
      <trkpt lat="48.36158" lon="2.70683">
        <ele>104</ele>
        <time>2015-04-23T08:05:01Z</time>
      </trkpt>
      <trkpt lat="48.36157" lon="2.7069">
        <ele>105</ele>
        <time>2015-04-23T08:05:12Z</time>
      </trkpt>
      <trkpt lat="48.36162" lon="2.70703">
        <ele>105</ele>
        <time>2015-04-23T08:05:30Z</time>
      </trkpt>
      <trkpt lat="48.36163" lon="2.70717">
        <ele>103</ele>
        <time>2015-04-23T08:05:39Z</time>
      </trkpt>
      <trkpt lat="48.36164" lon="2.70731">
        <ele>104</ele>
        <time>2015-04-23T08:05:50Z</time>
      </trkpt>
      <trkpt lat="48.36156" lon="2.70757">
        <ele>104</ele>
        <time>2015-04-23T08:06:16Z</time>
      </trkpt>
      <trkpt lat="48.36156" lon="2.70775">
        <ele>105</ele>
        <time>2015-04-23T08:06:32Z</time>
      </trkpt>
      <trkpt lat="48.36153" lon="2.70788">
        <ele>105</ele>
        <time>2015-04-23T08:06:41Z</time>
      </trkpt>
      <trkpt lat="48.36152" lon="2.70845">
        <ele>105</ele>
        <time>2015-04-23T08:07:21Z</time>
      </trkpt>
      <trkpt lat="48.36156" lon="2.70857">
        <ele>105</ele>
        <time>2015-04-23T08:07:31Z</time>
      </trkpt>
      <trkpt lat="48.36152" lon="2.70868">
        <ele>104</ele>
        <time>2015-04-23T08:07:46Z</time>
      </trkpt>
      <trkpt lat="48.36156" lon="2.70873">
        <ele>101</ele>
        <time>2015-04-23T08:08:23Z</time>
      </trkpt>
      <trkpt lat="48.36172" lon="2.70926">
        <ele>100</ele>
        <time>2015-04-23T08:08:58Z</time>
      </trkpt>
      <trkpt lat="48.36178" lon="2.70937">
        <ele>101</ele>
        <time>2015-04-23T08:09:08Z</time>
      </trkpt>
      <trkpt lat="48.36176" lon="2.70951">
        <ele>101</ele>
        <time>2015-04-23T08:09:35Z</time>
      </trkpt>
      <trkpt lat="48.36184" lon="2.70955">
        <ele>100</ele>
        <time>2015-04-23T08:09:56Z</time>
      </trkpt>
      <trkpt lat="48.36205" lon="2.70954">
        <ele>98</ele>
        <time>2015-04-23T08:10:27Z</time>
      </trkpt>
      <trkpt lat="48.36215" lon="2.70956">
        <ele>98</ele>
        <time>2015-04-23T08:10:39Z</time>
      </trkpt>
      <trkpt lat="48.36223" lon="2.70952">
        <ele>98</ele>
        <time>2015-04-23T08:10:49Z</time>
      </trkpt>
      <trkpt lat="48.36233" lon="2.70951">
        <ele>98</ele>
        <time>2015-04-23T08:11:05Z</time>
      </trkpt>
      <trkpt lat="48.36242" lon="2.70955">
        <ele>98</ele>
        <time>2015-04-23T08:11:18Z</time>
      </trkpt>
      <trkpt lat="48.36251" lon="2.70959">
        <ele>99</ele>
        <time>2015-04-23T08:11:28Z</time>
      </trkpt>
      <trkpt lat="48.3628" lon="2.70955">
        <ele>102</ele>
        <time>2015-04-23T08:12:14Z</time>
      </trkpt>
      <trkpt lat="48.36289" lon="2.70956">
        <ele>101</ele>
        <time>2015-04-23T08:12:26Z</time>
      </trkpt>
      <trkpt lat="48.36307" lon="2.70959">
        <ele>102</ele>
        <time>2015-04-23T08:12:54Z</time>
      </trkpt>
      <trkpt lat="48.36319" lon="2.70958">
        <ele>102</ele>
        <time>2015-04-23T08:13:14Z</time>
      </trkpt>
      <trkpt lat="48.36328" lon="2.70957">
        <ele>104</ele>
        <time>2015-04-23T08:13:26Z</time>
      </trkpt>
      <trkpt lat="48.36338" lon="2.70954">
        <ele>105</ele>
        <time>2015-04-23T08:13:36Z</time>
      </trkpt>
      <trkpt lat="48.36356" lon="2.70951">
        <ele>104</ele>
        <time>2015-04-23T08:14:00Z</time>
      </trkpt>
      <trkpt lat="48.36362" lon="2.70951">
        <ele>105</ele>
        <time>2015-04-23T08:14:13Z</time>
      </trkpt>
      <trkpt lat="48.36381" lon="2.70962">
        <ele>106</ele>
        <time>2015-04-23T08:14:38Z</time>
      </trkpt>
      <trkpt lat="48.36386" lon="2.70965">
        <ele>105</ele>
        <time>2015-04-23T08:14:45Z</time>
      </trkpt>
      <trkpt lat="48.36395" lon="2.70965">
        <ele>104</ele>
        <time>2015-04-23T08:14:59Z</time>
      </trkpt>
      <trkpt lat="48.36398" lon="2.70972">
        <ele>104</ele>
        <time>2015-04-23T08:15:05Z</time>
      </trkpt>
      <trkpt lat="48.36403" lon="2.70965">
        <ele>106</ele>
        <time>2015-04-23T08:15:20Z</time>
      </trkpt>
      <trkpt lat="48.36405" lon="2.70959">
        <ele>107</ele>
        <time>2015-04-23T08:15:29Z</time>
      </trkpt>
      <trkpt lat="48.36408" lon="2.70953">
        <ele>106</ele>
        <time>2015-04-23T08:15:36Z</time>
      </trkpt>
      <trkpt lat="48.36413" lon="2.70951">
        <ele>107</ele>
        <time>2015-04-23T08:15:44Z</time>
      </trkpt>
      <trkpt lat="48.36421" lon="2.70943">
        <ele>108</ele>
        <time>2015-04-23T08:16:02Z</time>
      </trkpt>
      <trkpt lat="48.36429" lon="2.70937">
        <ele>109</ele>
        <time>2015-04-23T08:16:18Z</time>
      </trkpt>
      <trkpt lat="48.36438" lon="2.70921">
        <ele>112</ele>
        <time>2015-04-23T08:16:46Z</time>
      </trkpt>
      <trkpt lat="48.36447" lon="2.70922">
        <ele>113</ele>
        <time>2015-04-23T08:16:59Z</time>
      </trkpt>
      <trkpt lat="48.36455" lon="2.70928">
        <ele>114</ele>
        <time>2015-04-23T08:17:08Z</time>
      </trkpt>
      <trkpt lat="48.36462" lon="2.70937">
        <ele>115</ele>
        <time>2015-04-23T08:17:17Z</time>
      </trkpt>
      <trkpt lat="48.36471" lon="2.70943">
        <ele>116</ele>
        <time>2015-04-23T08:17:28Z</time>
      </trkpt>
      <trkpt lat="48.36479" lon="2.70951">
        <ele>115</ele>
        <time>2015-04-23T08:17:39Z</time>
      </trkpt>
      <trkpt lat="48.36487" lon="2.70956">
        <ele>113</ele>
        <time>2015-04-23T08:17:48Z</time>
      </trkpt>
      <trkpt lat="48.36497" lon="2.70961">
        <ele>114</ele>
        <time>2015-04-23T08:17:59Z</time>
      </trkpt>
      <trkpt lat="48.36535" lon="2.70964">
        <ele>113</ele>
        <time>2015-04-23T08:18:39Z</time>
      </trkpt>
      <trkpt lat="48.36562" lon="2.70966">
        <ele>111</ele>
        <time>2015-04-23T08:19:13Z</time>
      </trkpt>
      <trkpt lat="48.36565" lon="2.70979">
        <ele>111</ele>
        <time>2015-04-23T08:19:24Z</time>
      </trkpt>
      <trkpt lat="48.36566" lon="2.70996">
        <ele>110</ele>
        <time>2015-04-23T08:19:45Z</time>
      </trkpt>
      <trkpt lat="48.36562" lon="2.7101">
        <ele>111</ele>
        <time>2015-04-23T08:19:55Z</time>
      </trkpt>
      <trkpt lat="48.3656" lon="2.71035">
        <ele>113</ele>
        <time>2015-04-23T08:20:16Z</time>
      </trkpt>
      <trkpt lat="48.36566" lon="2.7104">
        <ele>113</ele>
        <time>2015-04-23T08:20:32Z</time>
      </trkpt>
      <trkpt lat="48.36565" lon="2.71047">
        <ele>113</ele>
        <time>2015-04-23T08:20:38Z</time>
      </trkpt>
      <trkpt lat="48.36566" lon="2.71054">
        <ele>114</ele>
        <time>2015-04-23T08:20:44Z</time>
      </trkpt>
      <trkpt lat="48.36563" lon="2.71056">
        <ele>114</ele>
        <time>2015-04-23T08:20:55Z</time>
      </trkpt>
      <trkpt lat="48.36562" lon="2.71066">
        <ele>112</ele>
        <time>2015-04-23T08:21:06Z</time>
      </trkpt>
      <trkpt lat="48.36565" lon="2.71089">
        <ele>111</ele>
        <time>2015-04-23T08:21:36Z</time>
      </trkpt>
      <trkpt lat="48.36566" lon="2.71103">
        <ele>111</ele>
        <time>2015-04-23T08:21:47Z</time>
      </trkpt>
      <trkpt lat="48.36572" lon="2.71115">
        <ele>111</ele>
        <time>2015-04-23T08:21:56Z</time>
      </trkpt>
      <trkpt lat="48.36572" lon="2.71129">
        <ele>111</ele>
        <time>2015-04-23T08:22:06Z</time>
      </trkpt>
      <trkpt lat="48.36571" lon="2.71144">
        <ele>111</ele>
        <time>2015-04-23T08:22:16Z</time>
      </trkpt>
      <trkpt lat="48.36569" lon="2.71191">
        <ele>107</ele>
        <time>2015-04-23T08:22:54Z</time>
      </trkpt>
      <trkpt lat="48.36565" lon="2.71229">
        <ele>104</ele>
        <time>2015-04-23T08:23:21Z</time>
      </trkpt>
      <trkpt lat="48.36567" lon="2.71232">
        <ele>102</ele>
        <time>2015-04-23T08:23:41Z</time>
      </trkpt>
      <trkpt lat="48.36563" lon="2.71238">
        <ele>102</ele>
        <time>2015-04-23T08:23:47Z</time>
      </trkpt>
      <trkpt lat="48.3656" lon="2.71253">
        <ele>101</ele>
        <time>2015-04-23T08:23:57Z</time>
      </trkpt>
      <trkpt lat="48.36562" lon="2.71283">
        <ele>97</ele>
        <time>2015-04-23T08:24:15Z</time>
      </trkpt>
      <trkpt lat="48.36558" lon="2.71306">
        <ele>95</ele>
        <time>2015-04-23T08:24:27Z</time>
      </trkpt>
      <trkpt lat="48.36554" lon="2.71343">
        <ele>93</ele>
        <time>2015-04-23T08:24:51Z</time>
      </trkpt>
      <trkpt lat="48.36551" lon="2.7135">
        <ele>93</ele>
        <time>2015-04-23T08:24:57Z</time>
      </trkpt>
      <trkpt lat="48.36546" lon="2.71381">
        <ele>90</ele>
        <time>2015-04-23T08:25:15Z</time>
      </trkpt>
      <trkpt lat="48.36545" lon="2.71389">
        <ele>90</ele>
        <time>2015-04-23T08:25:20Z</time>
      </trkpt>
      <trkpt lat="48.36545" lon="2.71396">
        <ele>90</ele>
        <time>2015-04-23T08:25:24Z</time>
      </trkpt>
      <trkpt lat="48.36547" lon="2.71418">
        <ele>91</ele>
        <time>2015-04-23T08:25:37Z</time>
      </trkpt>
      <trkpt lat="48.36547" lon="2.71439">
        <ele>89</ele>
        <time>2015-04-23T08:25:51Z</time>
      </trkpt>
      <trkpt lat="48.36543" lon="2.71462">
        <ele>90</ele>
        <time>2015-04-23T08:26:06Z</time>
      </trkpt>
      <trkpt lat="48.36541" lon="2.71484">
        <ele>87</ele>
        <time>2015-04-23T08:26:26Z</time>
      </trkpt>
      <trkpt lat="48.3654" lon="2.71492">
        <ele>87</ele>
        <time>2015-04-23T08:26:31Z</time>
      </trkpt>
      <trkpt lat="48.36538" lon="2.71509">
        <ele>90</ele>
        <time>2015-04-23T08:26:45Z</time>
      </trkpt>
      <trkpt lat="48.36538" lon="2.71514">
        <ele>90</ele>
        <time>2015-04-23T08:27:00Z</time>
      </trkpt>
      <trkpt lat="48.36539" lon="2.71521">
        <ele>88</ele>
        <time>2015-04-23T08:27:16Z</time>
      </trkpt>
      <trkpt lat="48.3654" lon="2.7153">
        <ele>88</ele>
        <time>2015-04-23T08:27:20Z</time>
      </trkpt>
      <trkpt lat="48.36541" lon="2.71539">
        <ele>86</ele>
        <time>2015-04-23T08:27:25Z</time>
      </trkpt>
      <trkpt lat="48.36537" lon="2.71543">
        <ele>87</ele>
        <time>2015-04-23T08:27:30Z</time>
      </trkpt>
      <trkpt lat="48.36534" lon="2.7155">
        <ele>87</ele>
        <time>2015-04-23T08:27:35Z</time>
      </trkpt>
      <trkpt lat="48.36533" lon="2.71565">
        <ele>87</ele>
        <time>2015-04-23T08:27:47Z</time>
      </trkpt>
      <trkpt lat="48.36533" lon="2.71574">
        <ele>87</ele>
        <time>2015-04-23T08:27:51Z</time>
      </trkpt>
      <trkpt lat="48.36529" lon="2.71622">
        <ele>89</ele>
        <time>2015-04-23T08:28:17Z</time>
      </trkpt>
      <trkpt lat="48.3653" lon="2.71629">
        <ele>89</ele>
        <time>2015-04-23T08:28:21Z</time>
      </trkpt>
      <trkpt lat="48.3653" lon="2.71636">
        <ele>89</ele>
        <time>2015-04-23T08:28:25Z</time>
      </trkpt>
      <trkpt lat="48.36531" lon="2.71652">
        <ele>89</ele>
        <time>2015-04-23T08:28:33Z</time>
      </trkpt>
      <trkpt lat="48.36527" lon="2.71663">
        <ele>89</ele>
        <time>2015-04-23T08:28:38Z</time>
      </trkpt>
      <trkpt lat="48.36527" lon="2.71677">
        <ele>88</ele>
        <time>2015-04-23T08:28:49Z</time>
      </trkpt>
      <trkpt lat="48.36527" lon="2.71691">
        <ele>89</ele>
        <time>2015-04-23T08:28:59Z</time>
      </trkpt>
      <trkpt lat="48.36518" lon="2.71747">
        <ele>88</ele>
        <time>2015-04-23T08:29:34Z</time>
      </trkpt>
      <trkpt lat="48.36523" lon="2.71787">
        <ele>85</ele>
        <time>2015-04-23T08:30:03Z</time>
      </trkpt>
      <trkpt lat="48.36529" lon="2.71798">
        <ele>83</ele>
        <time>2015-04-23T08:30:13Z</time>
      </trkpt>
      <trkpt lat="48.36527" lon="2.71813">
        <ele>82</ele>
        <time>2015-04-23T08:30:23Z</time>
      </trkpt>
      <trkpt lat="48.36519" lon="2.71821">
        <ele>80</ele>
        <time>2015-04-23T08:30:32Z</time>
      </trkpt>
      <trkpt lat="48.36516" lon="2.71824">
        <ele>81</ele>
        <time>2015-04-23T08:30:56Z</time>
      </trkpt>
      <trkpt lat="48.36517" lon="2.71831">
        <ele>81</ele>
        <time>2015-04-23T08:31:01Z</time>
      </trkpt>
      <trkpt lat="48.3651" lon="2.71894">
        <ele>78</ele>
        <time>2015-04-23T08:31:34Z</time>
      </trkpt>
      <trkpt lat="48.3651" lon="2.71902">
        <ele>77</ele>
        <time>2015-04-23T08:31:39Z</time>
      </trkpt>
      <trkpt lat="48.36506" lon="2.71915">
        <ele>77</ele>
        <time>2015-04-23T08:31:48Z</time>
      </trkpt>
      <trkpt lat="48.36507" lon="2.71921">
        <ele>76</ele>
        <time>2015-04-23T08:31:52Z</time>
      </trkpt>
      <trkpt lat="48.36508" lon="2.71928">
        <ele>77</ele>
        <time>2015-04-23T08:31:57Z</time>
      </trkpt>
      <trkpt lat="48.36503" lon="2.71956">
        <ele>79</ele>
        <time>2015-04-23T08:32:16Z</time>
      </trkpt>
      <trkpt lat="48.36499" lon="2.71967">
        <ele>79</ele>
        <time>2015-04-23T08:32:25Z</time>
      </trkpt>
      <trkpt lat="48.36494" lon="2.71968">
        <ele>80</ele>
        <time>2015-04-23T08:32:33Z</time>
      </trkpt>
      <trkpt lat="48.3649" lon="2.71964">
        <ele>80</ele>
        <time>2015-04-23T08:32:37Z</time>
      </trkpt>
      <trkpt lat="48.3649" lon="2.71957">
        <ele>79</ele>
        <time>2015-04-23T08:32:44Z</time>
      </trkpt>
      <trkpt lat="48.36487" lon="2.71951">
        <ele>79</ele>
        <time>2015-04-23T08:32:49Z</time>
      </trkpt>
      <trkpt lat="48.36479" lon="2.71942">
        <ele>79</ele>
        <time>2015-04-23T08:32:57Z</time>
      </trkpt>
      <trkpt lat="48.36477" lon="2.71935">
        <ele>80</ele>
        <time>2015-04-23T08:33:02Z</time>
      </trkpt>
      <trkpt lat="48.36474" lon="2.71928">
        <ele>79</ele>
        <time>2015-04-23T08:33:08Z</time>
      </trkpt>
      <trkpt lat="48.36471" lon="2.71923">
        <ele>79</ele>
        <time>2015-04-23T08:33:12Z</time>
      </trkpt>
      <trkpt lat="48.36469" lon="2.71916">
        <ele>78</ele>
        <time>2015-04-23T08:33:18Z</time>
      </trkpt>
      <trkpt lat="48.36459" lon="2.71891">
        <ele>78</ele>
        <time>2015-04-23T08:33:34Z</time>
      </trkpt>
      <trkpt lat="48.36457" lon="2.71884">
        <ele>77</ele>
        <time>2015-04-23T08:33:40Z</time>
      </trkpt>
      <trkpt lat="48.36453" lon="2.71879">
        <ele>77</ele>
        <time>2015-04-23T08:33:44Z</time>
      </trkpt>
      <trkpt lat="48.36449" lon="2.71873">
        <ele>78</ele>
        <time>2015-04-23T08:33:48Z</time>
      </trkpt>
      <trkpt lat="48.36447" lon="2.71868">
        <ele>78</ele>
        <time>2015-04-23T08:33:52Z</time>
      </trkpt>
      <trkpt lat="48.36445" lon="2.7186">
        <ele>78</ele>
        <time>2015-04-23T08:33:59Z</time>
      </trkpt>
      <trkpt lat="48.36443" lon="2.71853">
        <ele>78</ele>
        <time>2015-04-23T08:34:03Z</time>
      </trkpt>
      <trkpt lat="48.3643" lon="2.71817">
        <ele>82</ele>
        <time>2015-04-23T08:34:27Z</time>
      </trkpt>
      <trkpt lat="48.36426" lon="2.71805">
        <ele>82</ele>
        <time>2015-04-23T08:34:39Z</time>
      </trkpt>
      <trkpt lat="48.36421" lon="2.71792">
        <ele>80</ele>
        <time>2015-04-23T08:34:51Z</time>
      </trkpt>
      <trkpt lat="48.3641" lon="2.7177">
        <ele>79</ele>
        <time>2015-04-23T08:35:10Z</time>
      </trkpt>
      <trkpt lat="48.36381" lon="2.71757">
        <ele>80</ele>
        <time>2015-04-23T08:35:42Z</time>
      </trkpt>
      <trkpt lat="48.36356" lon="2.71736">
        <ele>84</ele>
        <time>2015-04-23T08:36:14Z</time>
      </trkpt>
      <trkpt lat="48.36345" lon="2.71729">
        <ele>84</ele>
        <time>2015-04-23T08:36:30Z</time>
      </trkpt>
      <trkpt lat="48.36336" lon="2.71725">
        <ele>84</ele>
        <time>2015-04-23T08:36:40Z</time>
      </trkpt>
      <trkpt lat="48.36318" lon="2.71716">
        <ele>87</ele>
        <time>2015-04-23T08:37:03Z</time>
      </trkpt>
      <trkpt lat="48.36299" lon="2.7171">
        <ele>86</ele>
        <time>2015-04-23T08:37:21Z</time>
      </trkpt>
      <trkpt lat="48.36281" lon="2.71699">
        <ele>87</ele>
        <time>2015-04-23T08:37:36Z</time>
      </trkpt>
      <trkpt lat="48.36263" lon="2.71676">
        <ele>85</ele>
        <time>2015-04-23T08:37:55Z</time>
      </trkpt>
      <trkpt lat="48.3625" lon="2.71655">
        <ele>86</ele>
        <time>2015-04-23T08:38:15Z</time>
      </trkpt>
      <trkpt lat="48.36248" lon="2.71651">
        <ele>86</ele>
        <time>2015-04-23T08:38:22Z</time>
      </trkpt>
      <trkpt lat="48.36247" lon="2.71648">
        <ele>87</ele>
        <time>2015-04-23T08:38:55Z</time>
      </trkpt>
      <trkpt lat="48.36245" lon="2.71641">
        <ele>87</ele>
        <time>2015-04-23T08:39:02Z</time>
      </trkpt>
      <trkpt lat="48.36246" lon="2.71636">
        <ele>86</ele>
        <time>2015-04-23T08:39:19Z</time>
      </trkpt>
      <trkpt lat="48.36242" lon="2.71628">
        <ele>84</ele>
        <time>2015-04-23T08:39:31Z</time>
      </trkpt>
      <trkpt lat="48.36239" lon="2.71622">
        <ele>85</ele>
        <time>2015-04-23T08:39:35Z</time>
      </trkpt>
      <trkpt lat="48.36237" lon="2.71608">
        <ele>87</ele>
        <time>2015-04-23T08:39:50Z</time>
      </trkpt>
      <trkpt lat="48.36236" lon="2.71597">
        <ele>88</ele>
        <time>2015-04-23T08:40:00Z</time>
      </trkpt>
      <trkpt lat="48.36232" lon="2.71588">
        <ele>88</ele>
        <time>2015-04-23T08:40:07Z</time>
      </trkpt>
      <trkpt lat="48.3623" lon="2.71581">
        <ele>88</ele>
        <time>2015-04-23T08:40:11Z</time>
      </trkpt>
      <trkpt lat="48.36237" lon="2.71553">
        <ele>86</ele>
        <time>2015-04-23T08:40:32Z</time>
      </trkpt>
      <trkpt lat="48.36232" lon="2.71542">
        <ele>85</ele>
        <time>2015-04-23T08:40:40Z</time>
      </trkpt>
      <trkpt lat="48.36235" lon="2.71528">
        <ele>85</ele>
        <time>2015-04-23T08:40:48Z</time>
      </trkpt>
      <trkpt lat="48.36237" lon="2.71514">
        <ele>86</ele>
        <time>2015-04-23T08:40:56Z</time>
      </trkpt>
      <trkpt lat="48.36231" lon="2.71503">
        <ele>87</ele>
        <time>2015-04-23T08:41:04Z</time>
      </trkpt>
      <trkpt lat="48.3623" lon="2.7149">
        <ele>86</ele>
        <time>2015-04-23T08:41:13Z</time>
      </trkpt>
      <trkpt lat="48.36226" lon="2.71478">
        <ele>86</ele>
        <time>2015-04-23T08:41:21Z</time>
      </trkpt>
      <trkpt lat="48.36228" lon="2.71464">
        <ele>86</ele>
        <time>2015-04-23T08:41:28Z</time>
      </trkpt>
      <trkpt lat="48.36228" lon="2.71448">
        <ele>86</ele>
        <time>2015-04-23T08:41:38Z</time>
      </trkpt>
      <trkpt lat="48.36236" lon="2.71419">
        <ele>87</ele>
        <time>2015-04-23T08:41:46Z</time>
      </trkpt>
      <trkpt lat="48.36234" lon="2.71407">
        <ele>88</ele>
        <time>2015-04-23T08:41:49Z</time>
      </trkpt>
      <trkpt lat="48.36224" lon="2.71403">
        <ele>89</ele>
        <time>2015-04-23T08:41:57Z</time>
      </trkpt>
      <trkpt lat="48.36224" lon="2.71389">
        <ele>89</ele>
        <time>2015-04-23T08:42:15Z</time>
      </trkpt>
      <trkpt lat="48.36229" lon="2.7136">
        <ele>89</ele>
        <time>2015-04-23T08:42:35Z</time>
      </trkpt>
      <trkpt lat="48.36217" lon="2.71322">
        <ele>91</ele>
        <time>2015-04-23T08:43:07Z</time>
      </trkpt>
      <trkpt lat="48.36219" lon="2.71294">
        <ele>91</ele>
        <time>2015-04-23T08:43:22Z</time>
      </trkpt>
      <trkpt lat="48.36215" lon="2.71282">
        <ele>91</ele>
        <time>2015-04-23T08:43:37Z</time>
      </trkpt>
      <trkpt lat="48.36206" lon="2.71289">
        <ele>90</ele>
        <time>2015-04-23T08:43:45Z</time>
      </trkpt>
      <trkpt lat="48.36199" lon="2.713">
        <ele>91</ele>
        <time>2015-04-23T08:43:53Z</time>
      </trkpt>
      <trkpt lat="48.36194" lon="2.71295">
        <ele>93</ele>
        <time>2015-04-23T08:44:21Z</time>
      </trkpt>
      <trkpt lat="48.36187" lon="2.71308">
        <ele>94</ele>
        <time>2015-04-23T08:44:39Z</time>
      </trkpt>
      <trkpt lat="48.36181" lon="2.7132">
        <ele>95</ele>
        <time>2015-04-23T08:44:46Z</time>
      </trkpt>
      <trkpt lat="48.36173" lon="2.71329">
        <ele>95</ele>
        <time>2015-04-23T08:44:54Z</time>
      </trkpt>
      <trkpt lat="48.36172" lon="2.7134">
        <ele>94</ele>
        <time>2015-04-23T08:45:10Z</time>
      </trkpt>
      <trkpt lat="48.36154" lon="2.71371">
        <ele>91</ele>
        <time>2015-04-23T08:45:40Z</time>
      </trkpt>
      <trkpt lat="48.36124" lon="2.71426">
        <ele>93</ele>
        <time>2015-04-23T08:46:16Z</time>
      </trkpt>
      <trkpt lat="48.36116" lon="2.71434">
        <ele>93</ele>
        <time>2015-04-23T08:46:28Z</time>
      </trkpt>
      <trkpt lat="48.361" lon="2.7145">
        <ele>93</ele>
        <time>2015-04-23T08:46:43Z</time>
      </trkpt>
      <trkpt lat="48.36092" lon="2.71457">
        <ele>91</ele>
        <time>2015-04-23T08:46:55Z</time>
      </trkpt>
      <trkpt lat="48.36084" lon="2.71464">
        <ele>91</ele>
        <time>2015-04-23T08:47:01Z</time>
      </trkpt>
      <trkpt lat="48.36075" lon="2.71462">
        <ele>92</ele>
        <time>2015-04-23T08:47:08Z</time>
      </trkpt>
      <trkpt lat="48.36057" lon="2.71459">
        <ele>94</ele>
        <time>2015-04-23T08:47:30Z</time>
      </trkpt>
      <trkpt lat="48.36047" lon="2.71458">
        <ele>95</ele>
        <time>2015-04-23T08:47:38Z</time>
      </trkpt>
      <trkpt lat="48.36037" lon="2.7145">
        <ele>96</ele>
        <time>2015-04-23T08:47:46Z</time>
      </trkpt>
      <trkpt lat="48.36028" lon="2.71446">
        <ele>95</ele>
        <time>2015-04-23T08:47:52Z</time>
      </trkpt>
      <trkpt lat="48.36016" lon="2.71427">
        <ele>89</ele>
        <time>2015-04-23T08:48:21Z</time>
      </trkpt>
      <trkpt lat="48.36007" lon="2.71426">
        <ele>87</ele>
        <time>2015-04-23T08:48:30Z</time>
      </trkpt>
      <trkpt lat="48.36005" lon="2.71419">
        <ele>87</ele>
        <time>2015-04-23T08:48:35Z</time>
      </trkpt>
      <trkpt lat="48.3601" lon="2.71407">
        <ele>87</ele>
        <time>2015-04-23T08:48:41Z</time>
      </trkpt>
      <trkpt lat="48.36018" lon="2.714">
        <ele>86</ele>
        <time>2015-04-23T08:48:54Z</time>
      </trkpt>
      <trkpt lat="48.36018" lon="2.71386">
        <ele>87</ele>
        <time>2015-04-23T08:49:05Z</time>
      </trkpt>
      <trkpt lat="48.36017" lon="2.71371">
        <ele>87</ele>
        <time>2015-04-23T08:49:17Z</time>
      </trkpt>
      <trkpt lat="48.36022" lon="2.71358">
        <ele>87</ele>
        <time>2015-04-23T08:49:24Z</time>
      </trkpt>
      <trkpt lat="48.36023" lon="2.71345">
        <ele>88</ele>
        <time>2015-04-23T08:49:37Z</time>
      </trkpt>
      <trkpt lat="48.36024" lon="2.7131">
        <ele>89</ele>
        <time>2015-04-23T08:50:06Z</time>
      </trkpt>
      <trkpt lat="48.3602" lon="2.71298">
        <ele>89</ele>
        <time>2015-04-23T08:50:15Z</time>
      </trkpt>
      <trkpt lat="48.36017" lon="2.71284">
        <ele>90</ele>
        <time>2015-04-23T08:50:25Z</time>
      </trkpt>
      <trkpt lat="48.36022" lon="2.71273">
        <ele>90</ele>
        <time>2015-04-23T08:50:34Z</time>
      </trkpt>
      <trkpt lat="48.36026" lon="2.71259">
        <ele>90</ele>
        <time>2015-04-23T08:50:43Z</time>
      </trkpt>
      <trkpt lat="48.36024" lon="2.71244">
        <ele>90</ele>
        <time>2015-04-23T08:50:50Z</time>
      </trkpt>
      <trkpt lat="48.36031" lon="2.71233">
        <ele>91</ele>
        <time>2015-04-23T08:51:00Z</time>
      </trkpt>
      <trkpt lat="48.36033" lon="2.7122">
        <ele>92</ele>
        <time>2015-04-23T08:51:11Z</time>
      </trkpt>
      <trkpt lat="48.36035" lon="2.71184">
        <ele>93</ele>
        <time>2015-04-23T08:51:35Z</time>
      </trkpt>
      <trkpt lat="48.36038" lon="2.7117">
        <ele>93</ele>
        <time>2015-04-23T08:51:45Z</time>
      </trkpt>
      <trkpt lat="48.36044" lon="2.7116">
        <ele>92</ele>
        <time>2015-04-23T08:51:53Z</time>
      </trkpt>
      <trkpt lat="48.36044" lon="2.71145">
        <ele>92</ele>
        <time>2015-04-23T08:52:02Z</time>
      </trkpt>
      <trkpt lat="48.36049" lon="2.71088">
        <ele>94</ele>
        <time>2015-04-23T08:52:36Z</time>
      </trkpt>
      <trkpt lat="48.36054" lon="2.71078">
        <ele>95</ele>
        <time>2015-04-23T08:52:42Z</time>
      </trkpt>
      <trkpt lat="48.36055" lon="2.71071">
        <ele>95</ele>
        <time>2015-04-23T08:52:46Z</time>
      </trkpt>
      <trkpt lat="48.36058" lon="2.7105">
        <ele>94</ele>
        <time>2015-04-23T08:53:01Z</time>
      </trkpt>
      <trkpt lat="48.36057" lon="2.71043">
        <ele>94</ele>
        <time>2015-04-23T08:53:05Z</time>
      </trkpt>
      <trkpt lat="48.36058" lon="2.71036">
        <ele>94</ele>
        <time>2015-04-23T08:53:10Z</time>
      </trkpt>
      <trkpt lat="48.36058" lon="2.71029">
        <ele>93</ele>
        <time>2015-04-23T08:53:14Z</time>
      </trkpt>
      <trkpt lat="48.36063" lon="2.71009">
        <ele>90</ele>
        <time>2015-04-23T08:53:28Z</time>
      </trkpt>
      <trkpt lat="48.36066" lon="2.70995">
        <ele>90</ele>
        <time>2015-04-23T08:53:38Z</time>
      </trkpt>
      <trkpt lat="48.3607" lon="2.70974">
        <ele>91</ele>
        <time>2015-04-23T08:53:55Z</time>
      </trkpt>
      <trkpt lat="48.36065" lon="2.70969">
        <ele>91</ele>
        <time>2015-04-23T08:54:10Z</time>
      </trkpt>
      <trkpt lat="48.36058" lon="2.70976">
        <ele>90</ele>
        <time>2015-04-23T08:54:23Z</time>
      </trkpt>
      <trkpt lat="48.36051" lon="2.70985">
        <ele>91</ele>
        <time>2015-04-23T08:54:35Z</time>
      </trkpt>
      <trkpt lat="48.36047" lon="2.70982">
        <ele>91</ele>
        <time>2015-04-23T08:55:01Z</time>
      </trkpt>
      <trkpt lat="48.3605" lon="2.70977">
        <ele>92</ele>
        <time>2015-04-23T08:55:08Z</time>
      </trkpt>
      <trkpt lat="48.3605" lon="2.70982">
        <ele>93</ele>
        <time>2015-04-23T08:55:35Z</time>
      </trkpt>
      <trkpt lat="48.36044" lon="2.70993">
        <ele>93</ele>
        <time>2015-04-23T08:55:49Z</time>
      </trkpt>
      <trkpt lat="48.36036" lon="2.71002">
        <ele>94</ele>
        <time>2015-04-23T08:55:55Z</time>
      </trkpt>
      <trkpt lat="48.36023" lon="2.71008">
        <ele>92</ele>
        <time>2015-04-23T08:56:16Z</time>
      </trkpt>
      <trkpt lat="48.36019" lon="2.71004">
        <ele>92</ele>
        <time>2015-04-23T08:56:24Z</time>
      </trkpt>
      <trkpt lat="48.36014" lon="2.71002">
        <ele>93</ele>
        <time>2015-04-23T08:56:30Z</time>
      </trkpt>
      <trkpt lat="48.36003" lon="2.71007">
        <ele>95</ele>
        <time>2015-04-23T08:56:46Z</time>
      </trkpt>
      <trkpt lat="48.35993" lon="2.70997">
        <ele>99</ele>
        <time>2015-04-23T08:57:09Z</time>
      </trkpt>
      <trkpt lat="48.35984" lon="2.70997">
        <ele>101</ele>
        <time>2015-04-23T08:57:23Z</time>
      </trkpt>
      <trkpt lat="48.3598" lon="2.70991">
        <ele>103</ele>
        <time>2015-04-23T08:57:42Z</time>
      </trkpt>
      <trkpt lat="48.35985" lon="2.70981">
        <ele>102</ele>
        <time>2015-04-23T08:58:00Z</time>
      </trkpt>
      <trkpt lat="48.35978" lon="2.70969">
        <ele>101</ele>
        <time>2015-04-23T08:58:31Z</time>
      </trkpt>
      <trkpt lat="48.35969" lon="2.70963">
        <ele>101</ele>
        <time>2015-04-23T08:58:47Z</time>
      </trkpt>
      <trkpt lat="48.35964" lon="2.70948">
        <ele>103</ele>
        <time>2015-04-23T08:59:23Z</time>
      </trkpt>
      <trkpt lat="48.35941" lon="2.7091">
        <ele>112</ele>
        <time>2015-04-23T09:00:01Z</time>
      </trkpt>
      <trkpt lat="48.35939" lon="2.70914">
        <ele>113</ele>
        <time>2015-04-23T09:00:22Z</time>
      </trkpt>
      <trkpt lat="48.3594" lon="2.70917">
        <ele>113</ele>
        <time>2015-04-23T09:00:28Z</time>
      </trkpt>
      <trkpt lat="48.35936" lon="2.70921">
        <ele>113</ele>
        <time>2015-04-23T09:00:35Z</time>
      </trkpt>
      <trkpt lat="48.35934" lon="2.70921">
        <ele>114</ele>
        <time>2015-04-23T09:00:40Z</time>
      </trkpt>
      <trkpt lat="48.35929" lon="2.7092">
        <ele>114</ele>
        <time>2015-04-23T09:00:52Z</time>
      </trkpt>
      <trkpt lat="48.35927" lon="2.70926">
        <ele>115</ele>
        <time>2015-04-23T09:01:12Z</time>
      </trkpt>
      <trkpt lat="48.35928" lon="2.70932">
        <ele>115</ele>
        <time>2015-04-23T09:01:25Z</time>
      </trkpt>
      <trkpt lat="48.35924" lon="2.70934">
        <ele>113</ele>
        <time>2015-04-23T09:01:34Z</time>
      </trkpt>
      <trkpt lat="48.3592" lon="2.70939">
        <ele>113</ele>
        <time>2015-04-23T09:01:43Z</time>
      </trkpt>
      <trkpt lat="48.35909" lon="2.70933">
        <ele>114</ele>
        <time>2015-04-23T09:02:05Z</time>
      </trkpt>
      <trkpt lat="48.35909" lon="2.70933">
        <ele>119</ele>
        <time>2015-04-23T09:02:53Z</time>
      </trkpt>
      <trkpt lat="48.3589" lon="2.70941">
        <ele>119</ele>
        <time>2015-04-23T09:03:09Z</time>
      </trkpt>
      <trkpt lat="48.35871" lon="2.70945">
        <ele>120</ele>
        <time>2015-04-23T09:03:27Z</time>
      </trkpt>
      <trkpt lat="48.35857" lon="2.70961">
        <ele>120</ele>
        <time>2015-04-23T09:03:49Z</time>
      </trkpt>
      <trkpt lat="48.35852" lon="2.70975">
        <ele>120</ele>
        <time>2015-04-23T09:03:56Z</time>
      </trkpt>
      <trkpt lat="48.35843" lon="2.70979">
        <ele>120</ele>
        <time>2015-04-23T09:04:03Z</time>
      </trkpt>
      <trkpt lat="48.3582" lon="2.70968">
        <ele>121</ele>
        <time>2015-04-23T09:04:29Z</time>
      </trkpt>
      <trkpt lat="48.35819" lon="2.70964">
        <ele>121</ele>
        <time>2015-04-23T09:04:46Z</time>
      </trkpt>
      <trkpt lat="48.35813" lon="2.70964">
        <ele>121</ele>
        <time>2015-04-23T09:04:54Z</time>
      </trkpt>
      <trkpt lat="48.35808" lon="2.70963">
        <ele>121</ele>
        <time>2015-04-23T09:04:58Z</time>
      </trkpt>
      <trkpt lat="48.35804" lon="2.7096">
        <ele>119</ele>
        <time>2015-04-23T09:05:07Z</time>
      </trkpt>
      <trkpt lat="48.35799" lon="2.7096">
        <ele>119</ele>
        <time>2015-04-23T09:05:11Z</time>
      </trkpt>
      <trkpt lat="48.35794" lon="2.70962">
        <ele>118</ele>
        <time>2015-04-23T09:05:16Z</time>
      </trkpt>
      <trkpt lat="48.35793" lon="2.70971">
        <ele>118</ele>
        <time>2015-04-23T09:05:21Z</time>
      </trkpt>
      <trkpt lat="48.35791" lon="2.70977">
        <ele>118</ele>
        <time>2015-04-23T09:05:26Z</time>
      </trkpt>
      <trkpt lat="48.35791" lon="2.70984">
        <ele>118</ele>
        <time>2015-04-23T09:05:31Z</time>
      </trkpt>
      <trkpt lat="48.35793" lon="2.71008">
        <ele>119</ele>
        <time>2015-04-23T09:05:48Z</time>
      </trkpt>
      <trkpt lat="48.35793" lon="2.71016">
        <ele>118</ele>
        <time>2015-04-23T09:05:52Z</time>
      </trkpt>
      <trkpt lat="48.35793" lon="2.71024">
        <ele>118</ele>
        <time>2015-04-23T09:05:55Z</time>
      </trkpt>
      <trkpt lat="48.35795" lon="2.7104">
        <ele>118</ele>
        <time>2015-04-23T09:06:06Z</time>
      </trkpt>
      <trkpt lat="48.35798" lon="2.71048">
        <ele>118</ele>
        <time>2015-04-23T09:06:12Z</time>
      </trkpt>
      <trkpt lat="48.35798" lon="2.71055">
        <ele>119</ele>
        <time>2015-04-23T09:06:16Z</time>
      </trkpt>
      <trkpt lat="48.3579" lon="2.71074">
        <ele>120</ele>
        <time>2015-04-23T09:06:26Z</time>
      </trkpt>
      <trkpt lat="48.35773" lon="2.71084">
        <ele>122</ele>
        <time>2015-04-23T09:06:42Z</time>
      </trkpt>
      <trkpt lat="48.35765" lon="2.71094">
        <ele>122</ele>
        <time>2015-04-23T09:06:52Z</time>
      </trkpt>
      <trkpt lat="48.35733" lon="2.71115">
        <ele>120</ele>
        <time>2015-04-23T09:07:24Z</time>
      </trkpt>
      <trkpt lat="48.35722" lon="2.71115">
        <ele>119</ele>
        <time>2015-04-23T09:07:35Z</time>
      </trkpt>
      <trkpt lat="48.35718" lon="2.71118">
        <ele>119</ele>
        <time>2015-04-23T09:07:39Z</time>
      </trkpt>
      <trkpt lat="48.35714" lon="2.71123">
        <ele>118</ele>
        <time>2015-04-23T09:07:45Z</time>
      </trkpt>
      <trkpt lat="48.35715" lon="2.71132">
        <ele>116</ele>
        <time>2015-04-23T09:07:51Z</time>
      </trkpt>
      <trkpt lat="48.35716" lon="2.71146">
        <ele>115</ele>
        <time>2015-04-23T09:08:00Z</time>
      </trkpt>
      <trkpt lat="48.35714" lon="2.71152">
        <ele>115</ele>
        <time>2015-04-23T09:08:07Z</time>
      </trkpt>
      <trkpt lat="48.35713" lon="2.71161">
        <ele>115</ele>
        <time>2015-04-23T09:08:12Z</time>
      </trkpt>
      <trkpt lat="48.35712" lon="2.71172">
        <ele>115</ele>
        <time>2015-04-23T09:08:20Z</time>
      </trkpt>
      <trkpt lat="48.35709" lon="2.71178">
        <ele>115</ele>
        <time>2015-04-23T09:08:27Z</time>
      </trkpt>
      <trkpt lat="48.3571" lon="2.71201">
        <ele>115</ele>
        <time>2015-04-23T09:08:43Z</time>
      </trkpt>
      <trkpt lat="48.35707" lon="2.71215">
        <ele>114</ele>
        <time>2015-04-23T09:08:51Z</time>
      </trkpt>
      <trkpt lat="48.35702" lon="2.71228">
        <ele>114</ele>
        <time>2015-04-23T09:08:58Z</time>
      </trkpt>
      <trkpt lat="48.35698" lon="2.71233">
        <ele>113</ele>
        <time>2015-04-23T09:09:03Z</time>
      </trkpt>
      <trkpt lat="48.35698" lon="2.7124">
        <ele>112</ele>
        <time>2015-04-23T09:09:08Z</time>
      </trkpt>
      <trkpt lat="48.35693" lon="2.71246">
        <ele>112</ele>
        <time>2015-04-23T09:09:17Z</time>
      </trkpt>
      <trkpt lat="48.35688" lon="2.71246">
        <ele>113</ele>
        <time>2015-04-23T09:09:26Z</time>
      </trkpt>
      <trkpt lat="48.35684" lon="2.7125">
        <ele>115</ele>
        <time>2015-04-23T09:09:31Z</time>
      </trkpt>
      <trkpt lat="48.35681" lon="2.71258">
        <ele>115</ele>
        <time>2015-04-23T09:09:35Z</time>
      </trkpt>
      <trkpt lat="48.35673" lon="2.71264">
        <ele>117</ele>
        <time>2015-04-23T09:09:45Z</time>
      </trkpt>
      <trkpt lat="48.35675" lon="2.71264">
        <ele>117</ele>
        <time>2015-04-23T09:09:50Z</time>
      </trkpt>
      <trkpt lat="48.35677" lon="2.71268">
        <ele>117</ele>
        <time>2015-04-23T09:09:54Z</time>
      </trkpt>
      <trkpt lat="48.35679" lon="2.71275">
        <ele>117</ele>
        <time>2015-04-23T09:09:57Z</time>
      </trkpt>
      <trkpt lat="48.35676" lon="2.71281">
        <ele>118</ele>
        <time>2015-04-23T09:10:00Z</time>
      </trkpt>
      <trkpt lat="48.3567" lon="2.71292">
        <ele>120</ele>
        <time>2015-04-23T09:10:08Z</time>
      </trkpt>
      <trkpt lat="48.35665" lon="2.7129">
        <ele>121</ele>
        <time>2015-04-23T09:10:15Z</time>
      </trkpt>
      <trkpt lat="48.35656" lon="2.71284">
        <ele>123</ele>
        <time>2015-04-23T09:10:27Z</time>
      </trkpt>
      <trkpt lat="48.35651" lon="2.71285">
        <ele>122</ele>
        <time>2015-04-23T09:10:34Z</time>
      </trkpt>
      <trkpt lat="48.35647" lon="2.71289">
        <ele>122</ele>
        <time>2015-04-23T09:10:38Z</time>
      </trkpt>
      <trkpt lat="48.35645" lon="2.71295">
        <ele>121</ele>
        <time>2015-04-23T09:10:44Z</time>
      </trkpt>
      <trkpt lat="48.35644" lon="2.71304">
        <ele>121</ele>
        <time>2015-04-23T09:10:54Z</time>
      </trkpt>
      <trkpt lat="48.3564" lon="2.71309">
        <ele>121</ele>
        <time>2015-04-23T09:11:00Z</time>
      </trkpt>
      <trkpt lat="48.35637" lon="2.71316">
        <ele>122</ele>
        <time>2015-04-23T09:11:10Z</time>
      </trkpt>
      <trkpt lat="48.35634" lon="2.71323">
        <ele>122</ele>
        <time>2015-04-23T09:11:14Z</time>
      </trkpt>
      <trkpt lat="48.3563" lon="2.71328">
        <ele>121</ele>
        <time>2015-04-23T09:11:23Z</time>
      </trkpt>
      <trkpt lat="48.35626" lon="2.71329">
        <ele>120</ele>
        <time>2015-04-23T09:11:32Z</time>
      </trkpt>
      <trkpt lat="48.35624" lon="2.71327">
        <ele>120</ele>
        <time>2015-04-23T09:11:38Z</time>
      </trkpt>
      <trkpt lat="48.3562" lon="2.71329">
        <ele>120</ele>
        <time>2015-04-23T09:11:52Z</time>
      </trkpt>
      <trkpt lat="48.35612" lon="2.71336">
        <ele>119</ele>
        <time>2015-04-23T09:12:02Z</time>
      </trkpt>
      <trkpt lat="48.35598" lon="2.71341">
        <ele>117</ele>
        <time>2015-04-23T09:12:15Z</time>
      </trkpt>
      <trkpt lat="48.35595" lon="2.71346">
        <ele>116</ele>
        <time>2015-04-23T09:12:21Z</time>
      </trkpt>
      <trkpt lat="48.35595" lon="2.71354">
        <ele>115</ele>
        <time>2015-04-23T09:12:27Z</time>
      </trkpt>
      <trkpt lat="48.35602" lon="2.71361">
        <ele>112</ele>
        <time>2015-04-23T09:12:43Z</time>
      </trkpt>
      <trkpt lat="48.35598" lon="2.71372">
        <ele>112</ele>
        <time>2015-04-23T09:13:25Z</time>
      </trkpt>
      <trkpt lat="48.35592" lon="2.71399">
        <ele>109</ele>
        <time>2015-04-23T09:13:40Z</time>
      </trkpt>
      <trkpt lat="48.35583" lon="2.71414">
        <ele>110</ele>
        <time>2015-04-23T09:13:50Z</time>
      </trkpt>
      <trkpt lat="48.35573" lon="2.71432">
        <ele>108</ele>
        <time>2015-04-23T09:14:05Z</time>
      </trkpt>
      <trkpt lat="48.35569" lon="2.71428">
        <ele>108</ele>
        <time>2015-04-23T09:14:09Z</time>
      </trkpt>
      <trkpt lat="48.35558" lon="2.71429">
        <ele>107</ele>
        <time>2015-04-23T09:14:16Z</time>
      </trkpt>
      <trkpt lat="48.35549" lon="2.71438">
        <ele>106</ele>
        <time>2015-04-23T09:14:26Z</time>
      </trkpt>
      <trkpt lat="48.35541" lon="2.71448">
        <ele>106</ele>
        <time>2015-04-23T09:14:33Z</time>
      </trkpt>
      <trkpt lat="48.35525" lon="2.71472">
        <ele>99</ele>
        <time>2015-04-23T09:15:00Z</time>
      </trkpt>
      <trkpt lat="48.35519" lon="2.71474">
        <ele>99</ele>
        <time>2015-04-23T09:15:05Z</time>
      </trkpt>
      <trkpt lat="48.35509" lon="2.71471">
        <ele>100</ele>
        <time>2015-04-23T09:15:16Z</time>
      </trkpt>
      <trkpt lat="48.35505" lon="2.71474">
        <ele>100</ele>
        <time>2015-04-23T09:15:19Z</time>
      </trkpt>
      <trkpt lat="48.35499" lon="2.71474">
        <ele>101</ele>
        <time>2015-04-23T09:15:24Z</time>
      </trkpt>
      <trkpt lat="48.35495" lon="2.71477">
        <ele>101</ele>
        <time>2015-04-23T09:15:28Z</time>
      </trkpt>
      <trkpt lat="48.3549" lon="2.71479">
        <ele>102</ele>
        <time>2015-04-23T09:15:36Z</time>
      </trkpt>
      <trkpt lat="48.35488" lon="2.71475">
        <ele>98</ele>
        <time>2015-04-23T09:15:51Z</time>
      </trkpt>
      <trkpt lat="48.35483" lon="2.71486">
        <ele>98</ele>
        <time>2015-04-23T09:16:01Z</time>
      </trkpt>
      <trkpt lat="48.35476" lon="2.71502">
        <ele>97</ele>
        <time>2015-04-23T09:16:11Z</time>
      </trkpt>
      <trkpt lat="48.35466" lon="2.71518">
        <ele>97</ele>
        <time>2015-04-23T09:16:25Z</time>
      </trkpt>
      <trkpt lat="48.35464" lon="2.71512">
        <ele>95</ele>
        <time>2015-04-23T09:16:30Z</time>
      </trkpt>
      <trkpt lat="48.3546" lon="2.71512">
        <ele>94</ele>
        <time>2015-04-23T09:16:41Z</time>
      </trkpt>
      <trkpt lat="48.35457" lon="2.71524">
        <ele>94</ele>
        <time>2015-04-23T09:16:50Z</time>
      </trkpt>
      <trkpt lat="48.35449" lon="2.71538">
        <ele>94</ele>
        <time>2015-04-23T09:16:59Z</time>
      </trkpt>
      <trkpt lat="48.35443" lon="2.7155">
        <ele>93</ele>
        <time>2015-04-23T09:17:07Z</time>
      </trkpt>
      <trkpt lat="48.35435" lon="2.7156">
        <ele>93</ele>
        <time>2015-04-23T09:17:15Z</time>
      </trkpt>
      <trkpt lat="48.35433" lon="2.71569">
        <ele>92</ele>
        <time>2015-04-23T09:17:19Z</time>
      </trkpt>
      <trkpt lat="48.3543" lon="2.71571">
        <ele>91</ele>
        <time>2015-04-23T09:17:26Z</time>
      </trkpt>
      <trkpt lat="48.35425" lon="2.71575">
        <ele>90</ele>
        <time>2015-04-23T09:17:35Z</time>
      </trkpt>
      <trkpt lat="48.35424" lon="2.71583">
        <ele>90</ele>
        <time>2015-04-23T09:17:39Z</time>
      </trkpt>
      <trkpt lat="48.35428" lon="2.71586">
        <ele>90</ele>
        <time>2015-04-23T09:17:42Z</time>
      </trkpt>
      <trkpt lat="48.35426" lon="2.71593">
        <ele>90</ele>
        <time>2015-04-23T09:17:49Z</time>
      </trkpt>
      <trkpt lat="48.35431" lon="2.71595">
        <ele>90</ele>
        <time>2015-04-23T09:17:56Z</time>
      </trkpt>
      <trkpt lat="48.35438" lon="2.71607">
        <ele>87</ele>
        <time>2015-04-23T09:18:04Z</time>
      </trkpt>
      <trkpt lat="48.3544" lon="2.71614">
        <ele>87</ele>
        <time>2015-04-23T09:18:08Z</time>
      </trkpt>
      <trkpt lat="48.35446" lon="2.71628">
        <ele>88</ele>
        <time>2015-04-23T09:18:17Z</time>
      </trkpt>
      <trkpt lat="48.3545" lon="2.71635">
        <ele>88</ele>
        <time>2015-04-23T09:18:23Z</time>
      </trkpt>
      <trkpt lat="48.35453" lon="2.71641">
        <ele>87</ele>
        <time>2015-04-23T09:18:27Z</time>
      </trkpt>
      <trkpt lat="48.35451" lon="2.71658">
        <ele>86</ele>
        <time>2015-04-23T09:18:38Z</time>
      </trkpt>
      <trkpt lat="48.35448" lon="2.71665">
        <ele>85</ele>
        <time>2015-04-23T09:18:41Z</time>
      </trkpt>
      <trkpt lat="48.35443" lon="2.71667">
        <ele>84</ele>
        <time>2015-04-23T09:18:45Z</time>
      </trkpt>
      <trkpt lat="48.35443" lon="2.7166">
        <ele>83</ele>
        <time>2015-04-23T09:18:53Z</time>
      </trkpt>
      <trkpt lat="48.35453" lon="2.71666">
        <ele>83</ele>
        <time>2015-04-23T09:19:01Z</time>
      </trkpt>
      <trkpt lat="48.35478" lon="2.71678">
        <ele>83</ele>
        <time>2015-04-23T09:19:15Z</time>
      </trkpt>
      <trkpt lat="48.35475" lon="2.71684">
        <ele>84</ele>
        <time>2015-04-23T09:19:26Z</time>
      </trkpt>
      <trkpt lat="48.35469" lon="2.71688">
        <ele>84</ele>
        <time>2015-04-23T09:19:40Z</time>
      </trkpt>
      <trkpt lat="48.35467" lon="2.71695">
        <ele>84</ele>
        <time>2015-04-23T09:20:14Z</time>
      </trkpt>
      <trkpt lat="48.35467" lon="2.71715">
        <ele>84</ele>
        <time>2015-04-23T09:20:28Z</time>
      </trkpt>
      <trkpt lat="48.35465" lon="2.71722">
        <ele>87</ele>
        <time>2015-04-23T09:20:33Z</time>
      </trkpt>
      <trkpt lat="48.35472" lon="2.71733">
        <ele>88</ele>
        <time>2015-04-23T09:20:49Z</time>
      </trkpt>
      <trkpt lat="48.35481" lon="2.71737">
        <ele>89</ele>
        <time>2015-04-23T09:20:54Z</time>
      </trkpt>
      <trkpt lat="48.35487" lon="2.71749">
        <ele>89</ele>
        <time>2015-04-23T09:20:59Z</time>
      </trkpt>
      <trkpt lat="48.3549" lon="2.71754">
        <ele>89</ele>
        <time>2015-04-23T09:21:03Z</time>
      </trkpt>
      <trkpt lat="48.3549" lon="2.71761">
        <ele>87</ele>
        <time>2015-04-23T09:21:13Z</time>
      </trkpt>
      <trkpt lat="48.35487" lon="2.71767">
        <ele>84</ele>
        <time>2015-04-23T09:21:17Z</time>
      </trkpt>
      <trkpt lat="48.35486" lon="2.71772">
        <ele>83</ele>
        <time>2015-04-23T09:21:25Z</time>
      </trkpt>
      <trkpt lat="48.35483" lon="2.71771">
        <ele>85</ele>
        <time>2015-04-23T09:21:45Z</time>
      </trkpt>
    </trkseg>
  </trk>
</gpx>